Thunder radar more information blitzortung!


Radar de pluja more information rain snow radar


Visita la nostra xarxa de llocs de meteo:

Template documentation
and downloads

And another site



No particular awareness of the weather is required.    There are no Weather-warnings

Pagina Historial Weather Underground text

Diari Resum May 16, 2016 Unitats:  Mètric    Imperial   Tant
« Previous Dia
SegĂźent Dia »
Diari Setmana Mensual Anual Personalitzada
  Maxima: Minima: Media:
Temperatura: 24.4 °C 11.8 °C 19.2 °C
Punt de rosada: 10.9 °C 4.5 °C 7.6 °C
Humitat: 71 % 37 % 48 %
Wind Speed: 22.2 km/h 0.0 km/h 6.5 km/h
RĂ fegues de vent: 22.2 km/h - -
Vent:- - South
Pression baro: 1023.9 hPa 1018.8 hPa -
Precipitacions: 0.0 mm    
Historical Graphs
 
 
Dades de taula per May 16, 2016
Temps Temperatura Punt de rosada Pression baro Vent Wind Speed RĂ fegues de vent Humitat Rainfall Rate (Hourly)
00:00 16.2 °C 10.7 °C 1020.9 hPa East 5.6 km/h 5.8 km/h 70 % 0.0 mm
00:05 16.1 °C 10.8 °C 1020.9 hPa East 5.6 km/h 5.8 km/h 71 % 0.0 mm
00:10 16.1 °C 10.8 °C 1020.9 hPa East 5.6 km/h 5.8 km/h 71 % 0.0 mm
00:15 13.4 °C 6.0 °C 1021.9 hPa Calm   1.6 km/h 61 % 0.0 mm
00:25 13.3 °C 5.9 °C 1021.9 hPa Calm     61 % 0.0 mm
00:35 13.1 °C 5.7 °C 1021.9 hPa Calm     61 % 0.0 mm
00:45 12.9 °C 5.6 °C 1021.9 hPa Calm     61 % 0.0 mm
00:55 12.7 °C 5.4 °C 1020.9 hPa Calm     61 % 0.0 mm
01:05 12.6 °C 5.3 °C 1020.9 hPa Calm     61 % 0.0 mm
01:15 12.5 °C 5.2 °C 1021.9 hPa Calm     61 % 0.0 mm
01:25 12.4 °C 5.1 °C 1021.9 hPa Calm     61 % 0.0 mm
01:35 12.2 °C 4.9 °C 1021.9 hPa Calm     61 % 0.0 mm
01:45 12.1 °C 4.8 °C 1021.9 hPa Calm     61 % 0.0 mm
01:55 11.9 °C 4.6 °C 1022.9 hPa Calm     61 % 0.0 mm
02:05 11.8 °C 4.5 °C 1022.9 hPa Calm     61 % 0.0 mm
02:15 11.9 °C 4.8 °C 1022.9 hPa Calm     62 % 0.0 mm
02:25 12.1 °C 5.1 °C 1022.9 hPa Calm     62 % 0.0 mm
02:35 12.1 °C 5.1 °C 1022.9 hPa Calm     62 % 0.0 mm
02:45 12.3 °C 5.2 °C 1022.9 hPa Calm     62 % 0.0 mm
02:55 12.8 °C 5.7 °C 1022.9 hPa Calm     62 % 0.0 mm
03:05 13.2 °C 5.8 °C 1022.9 hPa North 1.6 km/h 3.2 km/h 61 % 0.0 mm
03:15 13.6 °C 6.2 °C 1022.9 hPa WNW 1.6 km/h 3.2 km/h 61 % 0.0 mm
03:25 13.8 °C 6.2 °C 1022.9 hPa WSW 1.6 km/h 1.6 km/h 60 % 0.0 mm
03:35 14.6 °C 6.7 °C 1022.9 hPa SSW 1.6 km/h 3.2 km/h 59 % 0.0 mm
03:45 14.9 °C 6.9 °C 1022.9 hPa Calm   1.6 km/h 59 % 0.0 mm
03:55 15.1 °C 7.2 °C 1022.9 hPa East 4.8 km/h 6.4 km/h 59 % 0.0 mm
04:05 15.1 °C 6.9 °C 1022.9 hPa ENE 4.8 km/h 6.4 km/h 58 % 0.0 mm
04:15 15.4 °C 6.9 °C 1023.9 hPa NNE 3.2 km/h 4.8 km/h 57 % 0.0 mm
04:25 15.7 °C 7.2 °C 1022.9 hPa NE 4.8 km/h 6.4 km/h 57 % 0.0 mm
04:35 16.1 °C 7.6 °C 1022.9 hPa NE 4.8 km/h 9.7 km/h 57 % 0.0 mm
04:45 16.2 °C 7.4 °C 1023.9 hPa NE 4.8 km/h 6.4 km/h 56 % 0.0 mm
04:55 16.5 °C 7.7 °C 1023.9 hPa NE 3.2 km/h 6.4 km/h 56 % 0.0 mm
05:05 16.7 °C 7.9 °C 1023.9 hPa ENE 4.8 km/h 6.4 km/h 56 % 0.0 mm
05:15 17.1 °C 7.7 °C 1023.9 hPa ENE 1.6 km/h 6.4 km/h 54 % 0.0 mm
05:25 17.5 °C 7.8 °C 1022.9 hPa ENE 4.8 km/h 12.9 km/h 53 % 0.0 mm
05:35 17.7 °C 8.0 °C 1022.9 hPa NNE 4.8 km/h 6.4 km/h 53 % 0.0 mm
05:45 18.1 °C 8.4 °C 1022.9 hPa NNE 3.2 km/h 6.4 km/h 53 % 0.0 mm
05:55 18.8 °C 8.7 °C 1022.9 hPa NNE 1.6 km/h 3.2 km/h 52 % 0.0 mm
06:05 19.1 °C 8.1 °C 1022.9 hPa SSW 1.6 km/h 3.2 km/h 49 % 0.0 mm
06:15 19.1 °C 8.1 °C 1022.9 hPa SSW 1.6 km/h 3.2 km/h 49 % 0.0 mm
06:25 19.8 °C 8.4 °C 1022.9 hPa SSW 1.6 km/h 3.2 km/h 48 % 0.0 mm
06:35 20.2 °C 8.5 °C 1022.9 hPa SSW 4.8 km/h 6.4 km/h 47 % 0.0 mm
06:45 20.3 °C 8.3 °C 1022.9 hPa SSW 3.2 km/h 6.4 km/h 46 % 0.0 mm
06:55 20.6 °C 8.6 °C 1022.9 hPa South 4.8 km/h 11.3 km/h 46 % 0.0 mm
07:05 21.3 °C 8.9 °C 1022.9 hPa SSE 1.6 km/h 4.8 km/h 45 % 0.0 mm
07:15 21.8 °C 9.3 °C 1021.9 hPa SSW 1.6 km/h 4.8 km/h 45 % 0.0 mm
07:25 21.6 °C 8.8 °C 1021.9 hPa WSW 1.6 km/h 1.6 km/h 44 % 0.0 mm
12:26 21.8 °C 9.0 °C 1021.9 hPa West 1.9 km/h 3.2 km/h 44 % 0.0 mm
12:31 22.2 °C 9.4 °C 1021.9 hPa West 1.9 km/h 3.2 km/h 44 % 0.0 mm
12:36 22.6 °C 9.4 °C 1022.9 hPa SSW 2.3 km/h 3.5 km/h 43 % 0.0 mm
12:41 22.1 °C 8.6 °C 1022.9 hPa West 7.4 km/h 7.4 km/h 42 % 0.0 mm
12:46 21.7 °C 8.2 °C 1022.9 hPa East 7.4 km/h 7.4 km/h 42 % 0.0 mm
12:51 22.1 °C 8.6 °C 1021.9 hPa West 9.3 km/h 9.3 km/h 42 % 0.0 mm
12:56 22.0 °C 8.5 °C 1021.9 hPa NNE 13.0 km/h 13.0 km/h 42 % 0.0 mm
13:01 22.6 °C 9.1 °C 1021.9 hPa WSW 3.7 km/h 3.7 km/h 42 % 0.0 mm
13:06 23.1 °C 9.1 °C 1021.9 hPa WNW 3.7 km/h 3.7 km/h 41 % 0.0 mm
13:11 22.7 °C 8.8 °C 1021.9 hPa SW 7.4 km/h 7.4 km/h 41 % 0.0 mm
13:16 23.1 °C 9.1 °C 1021.9 hPa SSW 5.6 km/h 5.6 km/h 41 % 0.0 mm
13:21 23.2 °C 8.8 °C 1021.9 hPa WSW 5.6 km/h 5.6 km/h 40 % 0.0 mm
13:31 23.0 °C 7.9 °C 1021.9 hPa SW 14.8 km/h 14.8 km/h 38 % 0.0 mm
13:36 23.0 °C 8.3 °C 1021.9 hPa West 7.4 km/h 7.4 km/h 39 % 0.0 mm
13:41 23.6 °C 9.2 °C 1021.9 hPa SSW 9.5 km/h 9.5 km/h 40 % 0.0 mm
13:47 23.3 °C 8.2 °C 1021.9 hPa WSW 14.8 km/h 14.8 km/h 38 % 0.0 mm
13:52 23.4 °C 8.3 °C 1021.9 hPa WSW 5.6 km/h 5.8 km/h 38 % 0.0 mm
13:57 23.5 °C 8.3 °C 1021.9 hPa SW 8.7 km/h 8.7 km/h 38 % 0.0 mm
14:02 24.0 °C 8.8 °C 1021.9 hPa South 3.7 km/h 3.7 km/h 38 % 0.0 mm
14:07 24.0 °C 8.8 °C 1021.9 hPa West 10.0 km/h 10.0 km/h 38 % 0.0 mm
14:12 23.7 °C 8.2 °C 1021.9 hPa WSW 7.4 km/h 7.4 km/h 37 % 0.0 mm
14:17 23.0 °C 8.7 °C 1021.9 hPa ESE 15.6 km/h 15.6 km/h 40 % 0.0 mm
14:22 22.4 °C 8.8 °C 1020.9 hPa East 16.7 km/h 16.7 km/h 42 % 0.0 mm
14:32 22.1 °C 9.3 °C 1020.9 hPa East 22.2 km/h 22.2 km/h 44 % 0.0 mm
14:37 21.8 °C 9.3 °C 1019.9 hPa ESE 11.9 km/h 11.9 km/h 45 % 0.0 mm
14:42 21.5 °C 9.1 °C 1019.9 hPa East 13.0 km/h 13.0 km/h 45 % 0.0 mm
14:47 21.2 °C 9.1 °C 1019.9 hPa ESE 13.7 km/h 13.7 km/h 46 % 0.0 mm
14:52 21.2 °C 9.1 °C 1018.8 hPa NNW 14.8 km/h 14.8 km/h 46 % 0.0 mm
14:57 21.3 °C 9.5 °C 1018.8 hPa SE 14.8 km/h 14.8 km/h 47 % 0.0 mm
15:02 21.2 °C 9.4 °C 1018.8 hPa East 22.2 km/h 22.2 km/h 47 % 0.0 mm
15:07 21.5 °C 9.7 °C 1019.9 hPa NE 20.4 km/h 20.4 km/h 47 % 0.0 mm
15:12 21.1 °C 9.3 °C 1019.9 hPa East 16.7 km/h 16.7 km/h 47 % 0.0 mm
15:17 21.5 °C 9.7 °C 1019.9 hPa ESE 16.7 km/h 16.7 km/h 47 % 0.0 mm
15:22 21.4 °C 9.6 °C 1019.9 hPa ESE 14.8 km/h 14.8 km/h 47 % 0.0 mm
15:27 21.4 °C 9.6 °C 1019.9 hPa East 16.7 km/h 16.7 km/h 47 % 0.0 mm
15:32 21.3 °C 9.8 °C 1019.9 hPa East 11.1 km/h 11.1 km/h 48 % 0.0 mm
15:37 21.4 °C 9.9 °C 1019.9 hPa ENE 11.1 km/h 11.1 km/h 48 % 0.0 mm
15:42 21.5 °C 10.0 °C 1019.9 hPa ESE 11.1 km/h 11.1 km/h 48 % 0.0 mm
15:47 21.4 °C 9.9 °C 1019.9 hPa ESE 14.8 km/h 14.8 km/h 48 % 0.0 mm
15:52 21.4 °C 9.9 °C 1019.9 hPa ESE 16.7 km/h 16.7 km/h 48 % 0.0 mm
15:57 21.5 °C 10.0 °C 1019.9 hPa ESE 18.5 km/h 18.5 km/h 48 % 0.0 mm
16:02 22.0 °C 10.2 °C 1019.9 hPa SW 9.3 km/h 9.3 km/h 47 % 0.0 mm
16:07 23.2 °C 10.9 °C 1019.9 hPa SW 5.6 km/h 5.6 km/h 46 % 0.0 mm
16:12 23.3 °C 10.0 °C 1019.9 hPa WSW 9.3 km/h 9.3 km/h 43 % 0.0 mm
16:17 23.4 °C 10.1 °C 1019.9 hPa SW 5.6 km/h 5.6 km/h 43 % 0.0 mm
16:22 24.1 °C 10.4 °C 1019.9 hPa SSW 9.3 km/h 9.3 km/h 42 % 0.0 mm
16:27 24.3 °C 10.6 °C 1019.9 hPa SSW 9.3 km/h 9.3 km/h 42 % 0.0 mm
16:32 23.9 °C 9.8 °C 1019.9 hPa WSW 13.0 km/h 13.0 km/h 41 % 0.0 mm
16:37 24.0 °C 9.9 °C 1019.9 hPa WSW 6.1 km/h 6.1 km/h 41 % 0.0 mm
16:42 24.2 °C 9.7 °C 1019.9 hPa WSW 11.1 km/h 11.1 km/h 40 % 0.0 mm
16:47 24.4 °C 9.9 °C 1019.9 hPa SW 14.8 km/h 14.8 km/h 40 % 0.0 mm
16:52 24.4 °C 9.9 °C 1019.9 hPa SW 9.0 km/h 9.0 km/h 40 % 0.0 mm
16:57 24.0 °C 9.6 °C 1019.9 hPa SSW 22.2 km/h 22.2 km/h 40 % 0.0 mm
17:02 24.3 °C 9.8 °C 1019.9 hPa SW 11.1 km/h 11.1 km/h 40 % 0.0 mm
17:07 24.3 °C 9.8 °C 1019.9 hPa WSW 7.4 km/h 7.4 km/h 40 % 0.0 mm
17:12 24.2 °C 9.7 °C 1019.9 hPa SW 7.4 km/h 7.4 km/h 40 % 0.0 mm
17:17 23.4 °C 8.7 °C 1019.9 hPa WSW 13.0 km/h 13.0 km/h 39 % 0.0 mm
17:22 23.0 °C 8.3 °C 1019.9 hPa WSW 11.1 km/h 11.1 km/h 39 % 0.0 mm
17:27 23.9 °C 9.5 °C 1019.9 hPa SSW 5.6 km/h 5.6 km/h 40 % 0.0 mm
17:32 23.6 °C 8.8 °C 1019.9 hPa SW 18.5 km/h 18.5 km/h 39 % 0.0 mm
17:37 23.4 °C 8.7 °C 1018.8 hPa South 11.1 km/h 11.1 km/h 39 % 0.0 mm
17:42 23.6 °C 8.8 °C 1018.8 hPa WSW 12.2 km/h 12.2 km/h 39 % 0.0 mm
17:47 23.2 °C 8.1 °C 1018.8 hPa SW 16.7 km/h 16.7 km/h 38 % 0.0 mm
17:52 23.1 °C 8.4 °C 1018.8 hPa South 9.3 km/h 9.3 km/h 39 % 0.0 mm
17:57 23.4 °C 8.7 °C 1018.8 hPa SW 9.3 km/h 9.3 km/h 39 % 0.0 mm
18:02 23.0 °C 7.9 °C 1018.8 hPa SSW 13.0 km/h 13.0 km/h 38 % 0.0 mm
18:07 22.5 °C 8.2 °C 1019.9 hPa SSW 11.1 km/h 11.1 km/h 40 % 0.0 mm
18:12 22.4 °C 8.1 °C 1019.9 hPa West 13.0 km/h 13.0 km/h 40 % 0.0 mm
18:17 22.9 °C 8.6 °C 1019.9 hPa SW 7.4 km/h 7.4 km/h 40 % 0.0 mm
18:22 22.8 °C 8.5 °C 1019.9 hPa WSW 7.4 km/h 7.4 km/h 40 % 0.0 mm
18:27 22.7 °C 8.0 °C 1019.9 hPa SW 13.0 km/h 13.0 km/h 39 % 0.0 mm
18:32 22.6 °C 7.9 °C 1019.9 hPa WSW 15.8 km/h 15.8 km/h 39 % 0.0 mm
18:37 22.6 °C 7.9 °C 1018.8 hPa SW 3.9 km/h 7.2 km/h 39 % 0.0 mm
18:47 22.3 °C 7.7 °C 1018.8 hPa West 9.3 km/h 9.5 km/h 39 % 0.0 mm
18:57 21.9 °C 7.7 °C 1018.8 hPa West 5.6 km/h 9.5 km/h 40 % 0.0 mm
19:02 21.5 °C 7.3 °C 1018.8 hPa West 5.6 km/h 9.5 km/h 40 % 0.0 mm
19:07 21.4 °C 7.2 °C 1018.8 hPa West 5.6 km/h 9.5 km/h 40 % 0.0 mm
19:12 21.0 °C 6.9 °C 1018.8 hPa SW 11.1 km/h 11.1 km/h 40 % 0.0 mm
19:17 21.0 °C 7.2 °C 1018.8 hPa SW 10.0 km/h 10.0 km/h 41 % 0.0 mm
19:22 20.6 °C 7.2 °C 1018.8 hPa SSW 9.3 km/h 9.3 km/h 42 % 0.0 mm
19:27 20.5 °C 7.2 °C 1018.8 hPa SSW 7.9 km/h 7.9 km/h 42 % 0.0 mm
19:32 20.4 °C 7.1 °C 1018.8 hPa SSW 5.6 km/h 6.1 km/h 42 % 0.0 mm
19:37 20.2 °C 6.9 °C 1018.8 hPa SSW 10.0 km/h 10.0 km/h 42 % 0.0 mm
19:42 20.0 °C 6.7 °C 1018.8 hPa WSW 2.3 km/h 3.9 km/h 42 % 0.0 mm
19:47 19.7 °C 6.8 °C 1018.8 hPa WSW 2.3 km/h 3.9 km/h 43 % 0.0 mm
19:52 19.6 °C 6.7 °C 1019.9 hPa WSW 2.3 km/h 3.9 km/h 43 % 0.0 mm
19:57 19.4 °C 6.5 °C 1019.9 hPa WSW 7.6 km/h 7.6 km/h 43 % 0.0 mm
20:02 19.3 °C 6.4 °C 1019.9 hPa WSW 9.3 km/h 9.3 km/h 43 % 0.0 mm
20:07 19.1 °C 6.2 °C 1019.9 hPa SSW 7.4 km/h 7.4 km/h 43 % 0.0 mm
20:12 19.1 °C 6.2 °C 1019.9 hPa SSW 7.4 km/h 7.4 km/h 43 % 0.0 mm
20:17 18.9 °C 6.4 °C 1019.9 hPa SW 7.4 km/h 7.4 km/h 44 % 0.0 mm
20:22 18.7 °C 5.8 °C 1018.8 hPa SW 9.3 km/h 10.0 km/h 43 % 0.0 mm
20:27 18.5 °C 5.7 °C 1018.8 hPa SW 11.1 km/h 11.1 km/h 43 % 0.0 mm
20:32 18.4 °C 5.6 °C 1018.8 hPa SW 5.6 km/h 5.6 km/h 43 % 0.0 mm
20:37 18.3 °C 5.5 °C 1019.9 hPa SW 5.6 km/h 5.6 km/h 43 % 0.0 mm
20:42 18.2 °C 5.7 °C 1019.9 hPa WSW 5.6 km/h 5.6 km/h 44 % 0.0 mm
20:47 18.1 °C 5.7 °C 1019.9 hPa SW 2.6 km/h 3.9 km/h 44 % 0.0 mm
20:52 17.9 °C 5.4 °C 1019.9 hPa West 1.9 km/h 1.9 km/h 44 % 0.0 mm
20:57 17.8 °C 5.4 °C 1019.9 hPa SW 5.6 km/h 5.6 km/h 44 % 0.0 mm
21:02 17.7 °C 5.3 °C 1019.9 hPa SW 3.7 km/h   44 % 0.0 mm
21:12 17.5 °C 5.4 °C 1019.9 hPa SSW 5.6 km/h 5.6 km/h 45 % 0.0 mm
21:17 17.3 °C 5.2 °C 1019.9 hPa SW 5.6 km/h 5.6 km/h 45 % 0.0 mm
21:22 17.2 °C 5.2 °C 1019.9 hPa WSW 3.7 km/h 3.7 km/h 45 % 0.0 mm
21:27 17.1 °C 5.1 °C 1019.9 hPa SW 4.2 km/h 4.2 km/h 45 % 0.0 mm
21:32 17.0 °C 5.3 °C 1019.9 hPa SW 4.2 km/h 4.2 km/h 46 % 0.0 mm
21:37 16.9 °C 5.5 °C 1019.9 hPa SW 4.2 km/h 4.2 km/h 47 % 0.0 mm
21:42 16.8 °C 5.4 °C 1019.9 hPa SW 4.2 km/h 4.2 km/h 47 % 0.0 mm
21:47 16.8 °C 5.4 °C 1019.9 hPa SW 4.2 km/h 4.2 km/h 47 % 0.0 mm
21:52 16.7 °C 5.3 °C 1019.9 hPa SW 4.2 km/h 4.2 km/h 47 % 0.0 mm
21:57 16.6 °C 5.2 °C 1019.9 hPa SW 4.2 km/h 4.2 km/h 47 % 0.0 mm
22:02 16.5 °C 5.4 °C 1019.9 hPa Calm   2.3 km/h 48 % 0.0 mm
22:07 16.4 °C 5.3 °C 1019.9 hPa Calm   2.3 km/h 48 % 0.0 mm
22:17 16.3 °C 5.3 °C 1019.9 hPa Calm   2.3 km/h 48 % 0.0 mm
22:22 16.3 °C 5.3 °C 1020.9 hPa Calm   2.3 km/h 48 % 0.0 mm
22:27 16.2 °C 5.2 °C 1020.9 hPa Calm   2.3 km/h 48 % 0.0 mm
22:32 16.2 °C 5.4 °C 1020.9 hPa Calm   2.3 km/h 49 % 0.0 mm
22:37 16.2 °C 5.4 °C 1020.9 hPa Calm   1.4 km/h 49 % 0.0 mm
22:47 16.1 °C 5.7 °C 1020.9 hPa Calm     50 % 0.0 mm
22:52 16.0 °C 5.8 °C 1020.9 hPa Calm     51 % 0.0 mm
22:57 16.0 °C 6.2 °C 1020.9 hPa Calm     52 % 0.0 mm
23:02 15.8 °C 5.9 °C 1020.9 hPa East 3.7 km/h 3.7 km/h 52 % 0.0 mm
23:07 15.8 °C 6.2 °C 1021.9 hPa ENE 3.7 km/h 3.7 km/h 53 % 0.0 mm
23:12 15.8 °C 6.5 °C 1021.9 hPa ENE 2.6 km/h 2.6 km/h 54 % 0.0 mm
23:17 15.7 °C 6.4 °C 1021.9 hPa ENE 2.6 km/h 2.6 km/h 54 % 0.0 mm
23:22 15.6 °C 6.6 °C 1021.9 hPa ENE 2.6 km/h 2.6 km/h 55 % 0.0 mm
23:32 15.5 °C 6.8 °C 1021.9 hPa ENE 2.6 km/h 2.6 km/h 56 % 0.0 mm
23:37 15.5 °C 7.0 °C 1021.9 hPa ENE 2.6 km/h 2.6 km/h 57 % 0.0 mm
23:42 15.4 °C 6.9 °C 1021.9 hPa ENE 2.6 km/h 2.6 km/h 57 % 0.0 mm
23:48 15.3 °C 7.1 °C 1021.9 hPa ENE 2.6 km/h 2.6 km/h 58 % 0.0 mm
23:53 15.3 °C 7.3 °C 1021.9 hPa ENE 2.6 km/h 2.6 km/h 59 % 0.0 mm
23:58 15.2 °C 7.2 °C 1021.9 hPa ENE 1.9 km/h 1.9 km/h 59 % 0.0 mm
Meteo Sesrovires
Elogis d' Weather Underground - 3.5 mb

Guio original per  Jim McMurry - jmcmurry@mwt.net Adaptat per a la plantilla per  Wim van der Kuil - Leuven-Template.eu

Trobareu la nostra informacio del temps tambe a:

Weather Underground

AWEKAS